sensor_id;sensor_type;location;lat;lon;timestamp;P1;durP1;ratioP1;P2;durP2;ratioP2
11344;SDS011;5727;42.600;23.028;2022-07-17T00:00:19;2.37;;;1.90;;
11344;SDS011;5727;42.600;23.028;2022-07-17T00:02:46;2.77;;;2.07;;
11344;SDS011;5727;42.600;23.028;2022-07-17T00:05:13;2.60;;;2.40;;
11344;SDS011;5727;42.600;23.028;2022-07-17T00:07:41;5.17;;;2.53;;
11344;SDS011;5727;42.600;23.028;2022-07-17T00:10:08;2.50;;;2.20;;
11344;SDS011;5727;42.600;23.028;2022-07-17T00:12:35;2.90;;;2.10;;
11344;SDS011;5727;42.600;23.028;2022-07-17T00:15:01;3.80;;;2.20;;
11344;SDS011;5727;42.600;23.028;2022-07-17T00:17:29;3.93;;;2.33;;
11344;SDS011;5727;42.600;23.028;2022-07-17T00:19:55;2.63;;;2.20;;
11344;SDS011;5727;42.600;23.028;2022-07-17T00:22:22;2.33;;;1.93;;
11344;SDS011;5727;42.600;23.028;2022-07-17T00:24:50;2.57;;;2.00;;
11344;SDS011;5727;42.600;23.028;2022-07-17T00:27:17;2.80;;;2.30;;
11344;SDS011;5727;42.600;23.028;2022-07-17T00:29:44;6.60;;;2.20;;
11344;SDS011;5727;42.600;23.028;2022-07-17T00:32:10;3.30;;;2.13;;
11344;SDS011;5727;42.600;23.028;2022-07-17T00:34:37;5.40;;;2.70;;
11344;SDS011;5727;42.600;23.028;2022-07-17T00:37:04;2.53;;;2.20;;
11344;SDS011;5727;42.600;23.028;2022-07-17T00:39:30;2.67;;;1.80;;
11344;SDS011;5727;42.600;23.028;2022-07-17T00:41:59;4.03;;;2.17;;
11344;SDS011;5727;42.600;23.028;2022-07-17T00:44:26;3.80;;;2.20;;
11344;SDS011;5727;42.600;23.028;2022-07-17T00:46:53;2.30;;;2.10;;
11344;SDS011;5727;42.600;23.028;2022-07-17T00:49:20;4.43;;;2.30;;
11344;SDS011;5727;42.600;23.028;2022-07-17T00:51:47;2.97;;;1.90;;
11344;SDS011;5727;42.600;23.028;2022-07-17T00:54:14;2.27;;;1.90;;
11344;SDS011;5727;42.600;23.028;2022-07-17T00:56:44;4.10;;;2.00;;
11344;SDS011;5727;42.600;23.028;2022-07-17T00:59:14;3.90;;;2.30;;
11344;SDS011;5727;42.600;23.028;2022-07-17T01:01:41;3.13;;;1.87;;
11344;SDS011;5727;42.600;23.028;2022-07-17T01:04:08;3.13;;;1.73;;
11344;SDS011;5727;42.600;23.028;2022-07-17T01:06:35;5.10;;;2.50;;
11344;SDS011;5727;42.600;23.028;2022-07-17T01:09:02;3.13;;;2.03;;
11344;SDS011;5727;42.600;23.028;2022-07-17T01:11:28;3.60;;;1.93;;
11344;SDS011;5727;42.600;23.028;2022-07-17T01:13:56;2.23;;;2.03;;
11344;SDS011;5727;42.600;23.028;2022-07-17T01:16:25;5.03;;;2.30;;
11344;SDS011;5727;42.600;23.028;2022-07-17T01:18:52;2.93;;;2.40;;
11344;SDS011;5727;42.600;23.028;2022-07-17T01:21:21;2.70;;;2.20;;
11344;SDS011;5727;42.600;23.028;2022-07-17T01:23:48;6.23;;;3.00;;
11344;SDS011;5727;42.600;23.028;2022-07-17T01:26:14;5.57;;;3.63;;
11344;SDS011;5727;42.600;23.028;2022-07-17T01:28:41;5.47;;;3.07;;
11344;SDS011;5727;42.600;23.028;2022-07-17T01:31:08;2.80;;;2.53;;
11344;SDS011;5727;42.600;23.028;2022-07-17T01:33:35;5.03;;;2.93;;
11344;SDS011;5727;42.600;23.028;2022-07-17T01:36:02;4.63;;;2.67;;
11344;SDS011;5727;42.600;23.028;2022-07-17T01:38:30;5.70;;;2.50;;
11344;SDS011;5727;42.600;23.028;2022-07-17T01:40:57;8.10;;;2.70;;
11344;SDS011;5727;42.600;23.028;2022-07-17T01:43:24;3.00;;;2.30;;
11344;SDS011;5727;42.600;23.028;2022-07-17T01:45:50;3.20;;;2.40;;
11344;SDS011;5727;42.600;23.028;2022-07-17T01:48:24;2.33;;;2.03;;
11344;SDS011;5727;42.600;23.028;2022-07-17T01:50:52;3.80;;;2.20;;
11344;SDS011;5727;42.600;23.028;2022-07-17T01:53:19;2.53;;;2.10;;
11344;SDS011;5727;42.600;23.028;2022-07-17T01:55:47;2.77;;;2.37;;
11344;SDS011;5727;42.600;23.028;2022-07-17T01:58:14;3.13;;;2.60;;
11344;SDS011;5727;42.600;23.028;2022-07-17T02:00:42;3.87;;;2.80;;
11344;SDS011;5727;42.600;23.028;2022-07-17T02:03:09;5.40;;;2.27;;
11344;SDS011;5727;42.600;23.028;2022-07-17T02:05:35;3.00;;;2.50;;
11344;SDS011;5727;42.600;23.028;2022-07-17T02:08:02;3.60;;;2.27;;
11344;SDS011;5727;42.600;23.028;2022-07-17T02:10:29;4.43;;;2.67;;
11344;SDS011;5727;42.600;23.028;2022-07-17T02:12:57;2.93;;;2.67;;
11344;SDS011;5727;42.600;23.028;2022-07-17T02:15:24;3.93;;;2.80;;
11344;SDS011;5727;42.600;23.028;2022-07-17T02:17:51;3.47;;;2.50;;
11344;SDS011;5727;42.600;23.028;2022-07-17T02:20:18;2.90;;;2.60;;
11344;SDS011;5727;42.600;23.028;2022-07-17T02:22:45;2.67;;;2.03;;
11344;SDS011;5727;42.600;23.028;2022-07-17T02:25:12;3.43;;;2.90;;
11344;SDS011;5727;42.600;23.028;2022-07-17T02:27:40;2.90;;;2.60;;
11344;SDS011;5727;42.600;23.028;2022-07-17T02:30:10;3.10;;;2.33;;
11344;SDS011;5727;42.600;23.028;2022-07-17T02:32:38;3.07;;;2.77;;
11344;SDS011;5727;42.600;23.028;2022-07-17T02:35:06;6.33;;;3.10;;
11344;SDS011;5727;42.600;23.028;2022-07-17T02:37:34;3.20;;;2.53;;
11344;SDS011;5727;42.600;23.028;2022-07-17T02:40:01;5.90;;;3.50;;
11344;SDS011;5727;42.600;23.028;2022-07-17T02:42:29;3.50;;;3.20;;
11344;SDS011;5727;42.600;23.028;2022-07-17T02:44:57;3.50;;;2.93;;
11344;SDS011;5727;42.600;23.028;2022-07-17T02:47:28;3.73;;;2.90;;
11344;SDS011;5727;42.600;23.028;2022-07-17T02:49:56;3.80;;;2.50;;
11344;SDS011;5727;42.600;23.028;2022-07-17T02:52:23;3.63;;;2.70;;
11344;SDS011;5727;42.600;23.028;2022-07-17T02:54:50;3.20;;;2.70;;
11344;SDS011;5727;42.600;23.028;2022-07-17T02:57:17;2.73;;;2.27;;
11344;SDS011;5727;42.600;23.028;2022-07-17T02:59:44;3.20;;;2.27;;
11344;SDS011;5727;42.600;23.028;2022-07-17T03:02:11;6.70;;;2.73;;
11344;SDS011;5727;42.600;23.028;2022-07-17T03:04:40;3.20;;;2.17;;
11344;SDS011;5727;42.600;23.028;2022-07-17T03:07:06;3.10;;;2.50;;
11344;SDS011;5727;42.600;23.028;2022-07-17T03:09:33;4.77;;;2.30;;
11344;SDS011;5727;42.600;23.028;2022-07-17T03:12:00;3.63;;;2.03;;
11344;SDS011;5727;42.600;23.028;2022-07-17T03:14:27;2.40;;;2.03;;
11344;SDS011;5727;42.600;23.028;2022-07-17T03:16:54;2.73;;;2.27;;
11344;SDS011;5727;42.600;23.028;2022-07-17T03:19:20;3.43;;;2.00;;
11344;SDS011;5727;42.600;23.028;2022-07-17T03:21:48;3.77;;;2.07;;
11344;SDS011;5727;42.600;23.028;2022-07-17T03:24:15;2.60;;;1.97;;
11344;SDS011;5727;42.600;23.028;2022-07-17T03:26:42;2.90;;;1.90;;
11344;SDS011;5727;42.600;23.028;2022-07-17T03:29:09;3.00;;;2.03;;
11344;SDS011;5727;42.600;23.028;2022-07-17T03:31:36;2.13;;;1.80;;
11344;SDS011;5727;42.600;23.028;2022-07-17T03:34:03;3.47;;;2.10;;
11344;SDS011;5727;42.600;23.028;2022-07-17T03:36:30;3.87;;;1.80;;
11344;SDS011;5727;42.600;23.028;2022-07-17T03:38:58;3.17;;;2.10;;
11344;SDS011;5727;42.600;23.028;2022-07-17T03:41:24;3.00;;;2.00;;
11344;SDS011;5727;42.600;23.028;2022-07-17T03:43:51;2.70;;;1.63;;
11344;SDS011;5727;42.600;23.028;2022-07-17T03:46:18;2.13;;;1.90;;
11344;SDS011;5727;42.600;23.028;2022-07-17T03:48:45;2.87;;;1.87;;
11344;SDS011;5727;42.600;23.028;2022-07-17T03:51:11;2.73;;;2.03;;
11344;SDS011;5727;42.600;23.028;2022-07-17T03:53:38;3.83;;;1.63;;
11344;SDS011;5727;42.600;23.028;2022-07-17T03:56:06;2.43;;;1.50;;
11344;SDS011;5727;42.600;23.028;2022-07-17T03:58:33;2.17;;;1.97;;
11344;SDS011;5727;42.600;23.028;2022-07-17T04:01:00;2.53;;;2.03;;
11344;SDS011;5727;42.600;23.028;2022-07-17T04:03:27;2.07;;;1.63;;
11344;SDS011;5727;42.600;23.028;2022-07-17T04:05:54;2.60;;;1.73;;
11344;SDS011;5727;42.600;23.028;2022-07-17T04:08:21;4.00;;;1.97;;
11344;SDS011;5727;42.600;23.028;2022-07-17T04:10:47;2.07;;;1.80;;
11344;SDS011;5727;42.600;23.028;2022-07-17T04:13:15;3.33;;;1.70;;
11344;SDS011;5727;42.600;23.028;2022-07-17T04:15:43;2.90;;;1.80;;
11344;SDS011;5727;42.600;23.028;2022-07-17T04:18:17;3.20;;;1.80;;
11344;SDS011;5727;42.600;23.028;2022-07-17T04:20:45;2.23;;;1.83;;
11344;SDS011;5727;42.600;23.028;2022-07-17T04:23:12;2.20;;;1.70;;
11344;SDS011;5727;42.600;23.028;2022-07-17T04:25:39;2.37;;;1.90;;
11344;SDS011;5727;42.600;23.028;2022-07-17T04:28:06;2.40;;;2.20;;
11344;SDS011;5727;42.600;23.028;2022-07-17T04:30:34;4.33;;;2.03;;
11344;SDS011;5727;42.600;23.028;2022-07-17T04:33:01;2.50;;;2.17;;
11344;SDS011;5727;42.600;23.028;2022-07-17T04:35:27;3.17;;;2.00;;
11344;SDS011;5727;42.600;23.028;2022-07-17T04:37:55;4.17;;;2.17;;
11344;SDS011;5727;42.600;23.028;2022-07-17T04:40:22;4.27;;;1.90;;
11344;SDS011;5727;42.600;23.028;2022-07-17T04:42:48;2.63;;;1.93;;
11344;SDS011;5727;42.600;23.028;2022-07-17T04:45:15;3.33;;;2.10;;
11344;SDS011;5727;42.600;23.028;2022-07-17T04:47:43;5.93;;;2.30;;
11344;SDS011;5727;42.600;23.028;2022-07-17T04:50:10;5.27;;;2.10;;
11344;SDS011;5727;42.600;23.028;2022-07-17T04:52:37;5.33;;;2.50;;
11344;SDS011;5727;42.600;23.028;2022-07-17T04:55:04;4.60;;;2.17;;
11344;SDS011;5727;42.600;23.028;2022-07-17T04:57:31;4.87;;;2.13;;
11344;SDS011;5727;42.600;23.028;2022-07-17T04:59:58;2.83;;;1.90;;
11344;SDS011;5727;42.600;23.028;2022-07-17T05:02:25;3.10;;;1.90;;
11344;SDS011;5727;42.600;23.028;2022-07-17T05:04:53;3.93;;;2.13;;
11344;SDS011;5727;42.600;23.028;2022-07-17T05:07:20;4.03;;;1.97;;
11344;SDS011;5727;42.600;23.028;2022-07-17T05:09:46;3.10;;;2.40;;
11344;SDS011;5727;42.600;23.028;2022-07-17T05:12:13;3.37;;;2.60;;
11344;SDS011;5727;42.600;23.028;2022-07-17T05:14:40;3.80;;;1.90;;
11344;SDS011;5727;42.600;23.028;2022-07-17T05:17:07;2.80;;;1.93;;
11344;SDS011;5727;42.600;23.028;2022-07-17T05:19:33;3.40;;;2.67;;
11344;SDS011;5727;42.600;23.028;2022-07-17T05:22:03;12.37;;;3.80;;
11344;SDS011;5727;42.600;23.028;2022-07-17T05:24:30;4.80;;;2.43;;
11344;SDS011;5727;42.600;23.028;2022-07-17T05:26:58;3.63;;;2.07;;
11344;SDS011;5727;42.600;23.028;2022-07-17T05:29:26;2.67;;;2.13;;
11344;SDS011;5727;42.600;23.028;2022-07-17T05:31:53;3.33;;;1.73;;
11344;SDS011;5727;42.600;23.028;2022-07-17T05:34:20;2.00;;;1.67;;
11344;SDS011;5727;42.600;23.028;2022-07-17T05:36:47;4.20;;;1.83;;
11344;SDS011;5727;42.600;23.028;2022-07-17T05:39:15;3.70;;;1.87;;
11344;SDS011;5727;42.600;23.028;2022-07-17T05:41:42;2.90;;;1.60;;
11344;SDS011;5727;42.600;23.028;2022-07-17T05:44:09;2.37;;;2.00;;
11344;SDS011;5727;42.600;23.028;2022-07-17T05:46:35;3.83;;;1.60;;
11344;SDS011;5727;42.600;23.028;2022-07-17T05:49:02;5.07;;;2.00;;
11344;SDS011;5727;42.600;23.028;2022-07-17T05:51:29;11.47;;;3.00;;
11344;SDS011;5727;42.600;23.028;2022-07-17T05:53:56;3.50;;;1.80;;
11344;SDS011;5727;42.600;23.028;2022-07-17T05:56:24;3.83;;;1.80;;
11344;SDS011;5727;42.600;23.028;2022-07-17T05:58:51;6.13;;;1.70;;
11344;SDS011;5727;42.600;23.028;2022-07-17T06:01:17;2.30;;;1.70;;
11344;SDS011;5727;42.600;23.028;2022-07-17T06:03:44;3.87;;;1.67;;
11344;SDS011;5727;42.600;23.028;2022-07-17T06:06:11;5.40;;;1.50;;
11344;SDS011;5727;42.600;23.028;2022-07-17T06:08:37;5.20;;;1.60;;
11344;SDS011;5727;42.600;23.028;2022-07-17T06:11:04;3.37;;;1.77;;
11344;SDS011;5727;42.600;23.028;2022-07-17T06:13:32;3.13;;;1.77;;
11344;SDS011;5727;42.600;23.028;2022-07-17T06:15:59;3.67;;;1.97;;
11344;SDS011;5727;42.600;23.028;2022-07-17T06:18:26;3.93;;;1.97;;
11344;SDS011;5727;42.600;23.028;2022-07-17T06:20:52;2.83;;;1.53;;
11344;SDS011;5727;42.600;23.028;2022-07-17T06:23:19;4.53;;;1.77;;
11344;SDS011;5727;42.600;23.028;2022-07-17T06:25:48;3.10;;;1.37;;
11344;SDS011;5727;42.600;23.028;2022-07-17T06:28:14;2.70;;;1.87;;
11344;SDS011;5727;42.600;23.028;2022-07-17T06:30:42;5.40;;;2.03;;
11344;SDS011;5727;42.600;23.028;2022-07-17T06:33:09;4.77;;;1.80;;
11344;SDS011;5727;42.600;23.028;2022-07-17T06:35:36;3.57;;;1.60;;
11344;SDS011;5727;42.600;23.028;2022-07-17T06:38:02;3.00;;;1.40;;
11344;SDS011;5727;42.600;23.028;2022-07-17T06:40:29;2.70;;;1.67;;
11344;SDS011;5727;42.600;23.028;2022-07-17T06:42:56;5.70;;;1.70;;
11344;SDS011;5727;42.600;23.028;2022-07-17T06:45:23;4.97;;;1.53;;
11344;SDS011;5727;42.600;23.028;2022-07-17T06:47:51;2.77;;;1.63;;
11344;SDS011;5727;42.600;23.028;2022-07-17T06:50:18;4.43;;;1.50;;
11344;SDS011;5727;42.600;23.028;2022-07-17T06:52:44;2.33;;;1.20;;
11344;SDS011;5727;42.600;23.028;2022-07-17T06:55:11;5.47;;;1.80;;
11344;SDS011;5727;42.600;23.028;2022-07-17T06:57:38;3.80;;;1.87;;
11344;SDS011;5727;42.600;23.028;2022-07-17T07:00:05;3.27;;;1.53;;
11344;SDS011;5727;42.600;23.028;2022-07-17T07:02:33;3.60;;;1.10;;
11344;SDS011;5727;42.600;23.028;2022-07-17T07:05:02;3.77;;;1.57;;
11344;SDS011;5727;42.600;23.028;2022-07-17T07:07:29;4.10;;;1.20;;
11344;SDS011;5727;42.600;23.028;2022-07-17T07:09:56;4.87;;;2.30;;
11344;SDS011;5727;42.600;23.028;2022-07-17T07:12:23;2.87;;;1.80;;
11344;SDS011;5727;42.600;23.028;2022-07-17T07:14:49;2.93;;;1.33;;
11344;SDS011;5727;42.600;23.028;2022-07-17T07:17:16;2.13;;;1.20;;
11344;SDS011;5727;42.600;23.028;2022-07-17T07:19:43;2.97;;;1.70;;
11344;SDS011;5727;42.600;23.028;2022-07-17T07:22:11;2.90;;;1.43;;
11344;SDS011;5727;42.600;23.028;2022-07-17T07:24:38;3.77;;;1.73;;
11344;SDS011;5727;42.600;23.028;2022-07-17T07:27:04;3.20;;;1.67;;
11344;SDS011;5727;42.600;23.028;2022-07-17T07:29:31;1.93;;;1.30;;
11344;SDS011;5727;42.600;23.028;2022-07-17T07:31:58;2.43;;;1.40;;
11344;SDS011;5727;42.600;23.028;2022-07-17T07:34:25;2.37;;;1.27;;
11344;SDS011;5727;42.600;23.028;2022-07-17T07:36:51;3.70;;;1.30;;
11344;SDS011;5727;42.600;23.028;2022-07-17T07:39:20;5.33;;;1.57;;
11344;SDS011;5727;42.600;23.028;2022-07-17T07:41:47;1.80;;;1.37;;
11344;SDS011;5727;42.600;23.028;2022-07-17T07:44:13;3.17;;;1.50;;
11344;SDS011;5727;42.600;23.028;2022-07-17T07:46:40;2.63;;;1.40;;
11344;SDS011;5727;42.600;23.028;2022-07-17T07:49:07;3.97;;;1.27;;
11344;SDS011;5727;42.600;23.028;2022-07-17T07:51:33;2.67;;;1.50;;
11344;SDS011;5727;42.600;23.028;2022-07-17T07:54:00;4.17;;;1.53;;
11344;SDS011;5727;42.600;23.028;2022-07-17T07:56:28;3.67;;;1.50;;
11344;SDS011;5727;42.600;23.028;2022-07-17T07:58:55;1.70;;;1.50;;
11344;SDS011;5727;42.600;23.028;2022-07-17T08:01:22;3.70;;;1.70;;
11344;SDS011;5727;42.600;23.028;2022-07-17T08:03:49;4.53;;;1.60;;
11344;SDS011;5727;42.600;23.028;2022-07-17T08:06:15;2.73;;;1.60;;
11344;SDS011;5727;42.600;23.028;2022-07-17T08:08:42;2.13;;;1.43;;
11344;SDS011;5727;42.600;23.028;2022-07-17T08:11:09;3.37;;;1.30;;
11344;SDS011;5727;42.600;23.028;2022-07-17T08:13:37;2.10;;;1.37;;
11344;SDS011;5727;42.600;23.028;2022-07-17T08:16:05;2.97;;;1.67;;
11344;SDS011;5727;42.600;23.028;2022-07-17T08:18:32;4.00;;;1.77;;
11344;SDS011;5727;42.600;23.028;2022-07-17T08:20:59;2.70;;;1.50;;
11344;SDS011;5727;42.600;23.028;2022-07-17T08:23:26;3.60;;;1.80;;
11344;SDS011;5727;42.600;23.028;2022-07-17T08:25:53;3.23;;;1.57;;
11344;SDS011;5727;42.600;23.028;2022-07-17T08:28:20;4.17;;;1.40;;
11344;SDS011;5727;42.600;23.028;2022-07-17T08:30:48;1.70;;;1.30;;
11344;SDS011;5727;42.600;23.028;2022-07-17T08:33:16;2.90;;;1.70;;
11344;SDS011;5727;42.600;23.028;2022-07-17T08:35:43;6.03;;;1.50;;
11344;SDS011;5727;42.600;23.028;2022-07-17T08:38:09;4.03;;;1.93;;
11344;SDS011;5727;42.600;23.028;2022-07-17T08:40:36;4.13;;;1.47;;
11344;SDS011;5727;42.600;23.028;2022-07-17T08:43:05;1.93;;;1.27;;
11344;SDS011;5727;42.600;23.028;2022-07-17T08:45:33;6.23;;;1.90;;
11344;SDS011;5727;42.600;23.028;2022-07-17T08:48:02;2.40;;;1.53;;
11344;SDS011;5727;42.600;23.028;2022-07-17T08:50:30;4.87;;;1.70;;
11344;SDS011;5727;42.600;23.028;2022-07-17T08:52:58;19.27;;;3.07;;
11344;SDS011;5727;42.600;23.028;2022-07-17T08:55:25;4.53;;;1.80;;
11344;SDS011;5727;42.600;23.028;2022-07-17T08:57:53;5.00;;;1.53;;
11344;SDS011;5727;42.600;23.028;2022-07-17T09:00:21;3.10;;;1.43;;
11344;SDS011;5727;42.600;23.028;2022-07-17T09:02:53;2.87;;;1.37;;
11344;SDS011;5727;42.600;23.028;2022-07-17T09:05:23;1.90;;;1.13;;
11344;SDS011;5727;42.600;23.028;2022-07-17T09:07:50;2.63;;;1.53;;
11344;SDS011;5727;42.600;23.028;2022-07-17T09:10:17;1.90;;;1.40;;
11344;SDS011;5727;42.600;23.028;2022-07-17T09:12:44;2.83;;;1.20;;
11344;SDS011;5727;42.600;23.028;2022-07-17T09:15:15;3.43;;;1.40;;
11344;SDS011;5727;42.600;23.028;2022-07-17T09:17:50;5.73;;;1.70;;
11344;SDS011;5727;42.600;23.028;2022-07-17T09:20:18;4.03;;;1.20;;
11344;SDS011;5727;42.600;23.028;2022-07-17T09:22:56;6.40;;;1.43;;
11344;SDS011;5727;42.600;23.028;2022-07-17T09:25:37;5.33;;;1.57;;
11344;SDS011;5727;42.600;23.028;2022-07-17T09:28:06;6.10;;;1.80;;
11344;SDS011;5727;42.600;23.028;2022-07-17T09:30:35;4.93;;;1.50;;
11344;SDS011;5727;42.600;23.028;2022-07-17T09:33:05;2.03;;;1.50;;
11344;SDS011;5727;42.600;23.028;2022-07-17T09:35:33;5.77;;;2.03;;
11344;SDS011;5727;42.600;23.028;2022-07-17T09:38:01;1.90;;;1.37;;
11344;SDS011;5727;42.600;23.028;2022-07-17T09:40:28;4.97;;;1.70;;
11344;SDS011;5727;42.600;23.028;2022-07-17T09:43:09;3.87;;;1.37;;
11344;SDS011;5727;42.600;23.028;2022-07-17T09:45:35;6.50;;;1.60;;
11344;SDS011;5727;42.600;23.028;2022-07-17T09:48:03;3.20;;;1.50;;
11344;SDS011;5727;42.600;23.028;2022-07-17T09:50:31;2.97;;;1.30;;
11344;SDS011;5727;42.600;23.028;2022-07-17T09:52:59;2.83;;;1.63;;
11344;SDS011;5727;42.600;23.028;2022-07-17T09:55:28;2.83;;;1.80;;
11344;SDS011;5727;42.600;23.028;2022-07-17T09:57:59;2.40;;;1.20;;
11344;SDS011;5727;42.600;23.028;2022-07-17T10:00:28;4.13;;;1.57;;
11344;SDS011;5727;42.600;23.028;2022-07-17T10:02:55;2.50;;;1.30;;
11344;SDS011;5727;42.600;23.028;2022-07-17T10:05:23;2.37;;;1.47;;
11344;SDS011;5727;42.600;23.028;2022-07-17T10:07:50;2.13;;;1.33;;
11344;SDS011;5727;42.600;23.028;2022-07-17T10:10:18;4.67;;;1.70;;
11344;SDS011;5727;42.600;23.028;2022-07-17T10:12:46;4.30;;;1.30;;
11344;SDS011;5727;42.600;23.028;2022-07-17T10:15:15;3.70;;;1.20;;
11344;SDS011;5727;42.600;23.028;2022-07-17T10:17:43;4.87;;;1.40;;
11344;SDS011;5727;42.600;23.028;2022-07-17T10:20:10;4.87;;;1.50;;
11344;SDS011;5727;42.600;23.028;2022-07-17T10:22:42;6.30;;;1.40;;
11344;SDS011;5727;42.600;23.028;2022-07-17T10:25:12;2.87;;;1.50;;
11344;SDS011;5727;42.600;23.028;2022-07-17T10:27:46;3.27;;;1.20;;
11344;SDS011;5727;42.600;23.028;2022-07-17T10:30:19;2.07;;;1.20;;
11344;SDS011;5727;42.600;23.028;2022-07-17T10:32:52;3.70;;;1.50;;
11344;SDS011;5727;42.600;23.028;2022-07-17T10:35:19;3.07;;;1.40;;
11344;SDS011;5727;42.600;23.028;2022-07-17T10:37:46;2.97;;;1.40;;
11344;SDS011;5727;42.600;23.028;2022-07-17T10:40:15;3.40;;;1.23;;
11344;SDS011;5727;42.600;23.028;2022-07-17T10:42:50;5.27;;;1.40;;
11344;SDS011;5727;42.600;23.028;2022-07-17T10:45:23;2.50;;;1.20;;
11344;SDS011;5727;42.600;23.028;2022-07-17T10:47:52;2.80;;;1.43;;
11344;SDS011;5727;42.600;23.028;2022-07-17T10:50:22;4.20;;;1.40;;
11344;SDS011;5727;42.600;23.028;2022-07-17T10:53:03;1.73;;;0.87;;
11344;SDS011;5727;42.600;23.028;2022-07-17T10:55:32;2.43;;;1.20;;
11344;SDS011;5727;42.600;23.028;2022-07-17T10:58:01;3.73;;;1.53;;
11344;SDS011;5727;42.600;23.028;2022-07-17T11:00:28;2.57;;;1.00;;
11344;SDS011;5727;42.600;23.028;2022-07-17T11:02:55;4.47;;;1.30;;
11344;SDS011;5727;42.600;23.028;2022-07-17T11:05:22;3.63;;;1.37;;
11344;SDS011;5727;42.600;23.028;2022-07-17T11:07:53;4.13;;;1.10;;
11344;SDS011;5727;42.600;23.028;2022-07-17T11:10:21;3.00;;;1.33;;
11344;SDS011;5727;42.600;23.028;2022-07-17T11:12:50;2.60;;;1.07;;
11344;SDS011;5727;42.600;23.028;2022-07-17T11:15:18;5.10;;;1.60;;
11344;SDS011;5727;42.600;23.028;2022-07-17T11:17:46;1.70;;;1.07;;
11344;SDS011;5727;42.600;23.028;2022-07-17T11:20:15;3.27;;;0.97;;
11344;SDS011;5727;42.600;23.028;2022-07-17T11:22:42;2.33;;;1.53;;
11344;SDS011;5727;42.600;23.028;2022-07-17T11:25:09;1.80;;;1.00;;
11344;SDS011;5727;42.600;23.028;2022-07-17T11:27:36;2.17;;;1.33;;
11344;SDS011;5727;42.600;23.028;2022-07-17T11:30:04;2.23;;;0.90;;
11344;SDS011;5727;42.600;23.028;2022-07-17T11:32:40;3.80;;;1.17;;
11344;SDS011;5727;42.600;23.028;2022-07-17T11:35:17;1.30;;;1.10;;
11344;SDS011;5727;42.600;23.028;2022-07-17T11:37:47;3.60;;;1.00;;
11344;SDS011;5727;42.600;23.028;2022-07-17T11:40:14;1.92;;;1.00;;
11344;SDS011;5727;42.600;23.028;2022-07-17T11:42:41;3.08;;;0.93;;
11344;SDS011;5727;42.600;23.028;2022-07-17T11:45:09;2.30;;;1.10;;
11344;SDS011;5727;42.600;23.028;2022-07-17T11:47:36;3.97;;;1.00;;
11344;SDS011;5727;42.600;23.028;2022-07-17T11:50:06;1.33;;;0.70;;
11344;SDS011;5727;42.600;23.028;2022-07-17T11:52:44;3.00;;;0.88;;
11344;SDS011;5727;42.600;23.028;2022-07-17T11:55:13;2.83;;;1.10;;
11344;SDS011;5727;42.600;23.028;2022-07-17T11:57:41;2.95;;;1.00;;
11344;SDS011;5727;42.600;23.028;2022-07-17T12:00:11;2.53;;;0.80;;
11344;SDS011;5727;42.600;23.028;2022-07-17T12:02:38;2.58;;;1.00;;
11344;SDS011;5727;42.600;23.028;2022-07-17T12:05:07;4.30;;;1.27;;
11344;SDS011;5727;42.600;23.028;2022-07-17T12:07:44;1.50;;;0.80;;
11344;SDS011;5727;42.600;23.028;2022-07-17T12:10:13;2.95;;;1.45;;
11344;SDS011;5727;42.600;23.028;2022-07-17T12:12:51;2.63;;;0.95;;
11344;SDS011;5727;42.600;23.028;2022-07-17T12:15:33;1.85;;;1.00;;
11344;SDS011;5727;42.600;23.028;2022-07-17T12:18:01;2.88;;;1.00;;
11344;SDS011;5727;42.600;23.028;2022-07-17T12:20:40;2.42;;;0.90;;
11344;SDS011;5727;42.600;23.028;2022-07-17T12:23:08;3.92;;;1.10;;
11344;SDS011;5727;42.600;23.028;2022-07-17T12:25:36;2.25;;;0.88;;
11344;SDS011;5727;42.600;23.028;2022-07-17T12:28:03;2.00;;;1.00;;
11344;SDS011;5727;42.600;23.028;2022-07-17T12:30:29;2.45;;;0.70;;
11344;SDS011;5727;42.600;23.028;2022-07-17T12:32:57;3.38;;;1.10;;
11344;SDS011;5727;42.600;23.028;2022-07-17T12:35:24;1.67;;;0.70;;
11344;SDS011;5727;42.600;23.028;2022-07-17T12:37:53;4.18;;;1.10;;
11344;SDS011;5727;42.600;23.028;2022-07-17T12:40:19;6.28;;;1.38;;
11344;SDS011;5727;42.600;23.028;2022-07-17T12:42:46;4.05;;;1.23;;
11344;SDS011;5727;42.600;23.028;2022-07-17T12:45:13;3.25;;;1.08;;
11344;SDS011;5727;42.600;23.028;2022-07-17T12:47:40;2.42;;;1.00;;
11344;SDS011;5727;42.600;23.028;2022-07-17T12:50:07;5.10;;;1.10;;
11344;SDS011;5727;42.600;23.028;2022-07-17T12:52:34;1.77;;;1.20;;
11344;SDS011;5727;42.600;23.028;2022-07-17T12:55:03;1.20;;;0.60;;
11344;SDS011;5727;42.600;23.028;2022-07-17T12:57:31;1.88;;;0.80;;
11344;SDS011;5727;42.600;23.028;2022-07-17T12:59:58;2.90;;;0.73;;
11344;SDS011;5727;42.600;23.028;2022-07-17T13:02:24;1.42;;;0.90;;
11344;SDS011;5727;42.600;23.028;2022-07-17T13:04:51;2.17;;;0.90;;
11344;SDS011;5727;42.600;23.028;2022-07-17T13:07:18;1.77;;;1.00;;
11344;SDS011;5727;42.600;23.028;2022-07-17T13:09:45;2.92;;;0.95;;
11344;SDS011;5727;42.600;23.028;2022-07-17T13:12:13;2.22;;;0.80;;
11344;SDS011;5727;42.600;23.028;2022-07-17T13:14:40;2.45;;;1.10;;
11344;SDS011;5727;42.600;23.028;2022-07-17T13:17:07;2.85;;;1.10;;
11344;SDS011;5727;42.600;23.028;2022-07-17T13:19:34;1.33;;;1.10;;
11344;SDS011;5727;42.600;23.028;2022-07-17T13:22:01;1.65;;;1.10;;
11344;SDS011;5727;42.600;23.028;2022-07-17T13:24:29;2.78;;;1.20;;
11344;SDS011;5727;42.600;23.028;2022-07-17T13:26:56;1.52;;;1.10;;
11344;SDS011;5727;42.600;23.028;2022-07-17T13:29:24;2.67;;;1.02;;
11344;SDS011;5727;42.600;23.028;2022-07-17T13:31:52;1.20;;;0.90;;
11344;SDS011;5727;42.600;23.028;2022-07-17T13:34:19;3.10;;;1.00;;
11344;SDS011;5727;42.600;23.028;2022-07-17T13:36:46;1.95;;;1.10;;
11344;SDS011;5727;42.600;23.028;2022-07-17T13:39:13;3.20;;;1.13;;
11344;SDS011;5727;42.600;23.028;2022-07-17T13:41:40;4.75;;;1.20;;
11344;SDS011;5727;42.600;23.028;2022-07-17T13:44:08;2.38;;;0.80;;
11344;SDS011;5727;42.600;23.028;2022-07-17T13:46:36;2.95;;;1.17;;
11344;SDS011;5727;42.600;23.028;2022-07-17T13:49:03;2.90;;;1.00;;
11344;SDS011;5727;42.600;23.028;2022-07-17T13:51:30;4.55;;;1.35;;
11344;SDS011;5727;42.600;23.028;2022-07-17T13:53:57;1.90;;;1.40;;
11344;SDS011;5727;42.600;23.028;2022-07-17T13:56:24;2.28;;;0.88;;
11344;SDS011;5727;42.600;23.028;2022-07-17T13:58:51;2.63;;;0.82;;
11344;SDS011;5727;42.600;23.028;2022-07-17T14:01:18;2.72;;;1.10;;
11344;SDS011;5727;42.600;23.028;2022-07-17T14:03:47;1.85;;;1.20;;
11344;SDS011;5727;42.600;23.028;2022-07-17T14:06:14;2.42;;;1.10;;
11344;SDS011;5727;42.600;23.028;2022-07-17T14:08:41;3.90;;;1.50;;
11344;SDS011;5727;42.600;23.028;2022-07-17T14:11:09;1.42;;;1.10;;
11344;SDS011;5727;42.600;23.028;2022-07-17T14:13:36;1.63;;;0.90;;
11344;SDS011;5727;42.600;23.028;2022-07-17T14:16:03;5.45;;;1.40;;
11344;SDS011;5727;42.600;23.028;2022-07-17T14:18:30;4.00;;;1.30;;
11344;SDS011;5727;42.600;23.028;2022-07-17T14:20:58;1.52;;;1.05;;
11344;SDS011;5727;42.600;23.028;2022-07-17T14:23:25;2.72;;;1.23;;
11344;SDS011;5727;42.600;23.028;2022-07-17T14:25:52;1.33;;;1.13;;
11344;SDS011;5727;42.600;23.028;2022-07-17T14:28:19;2.30;;;1.30;;
11344;SDS011;5727;42.600;23.028;2022-07-17T14:30:46;2.13;;;1.27;;
11344;SDS011;5727;42.600;23.028;2022-07-17T14:33:12;2.00;;;1.38;;
11344;SDS011;5727;42.600;23.028;2022-07-17T14:35:39;3.65;;;1.77;;
11344;SDS011;5727;42.600;23.028;2022-07-17T14:38:07;3.45;;;1.40;;
11344;SDS011;5727;42.600;23.028;2022-07-17T14:40:34;2.17;;;1.40;;
11344;SDS011;5727;42.600;23.028;2022-07-17T14:43:01;1.90;;;1.30;;
11344;SDS011;5727;42.600;23.028;2022-07-17T14:45:28;3.08;;;1.42;;
11344;SDS011;5727;42.600;23.028;2022-07-17T14:47:54;2.83;;;1.55;;
11344;SDS011;5727;42.600;23.028;2022-07-17T14:50:21;2.20;;;1.42;;